This is the latest recevied weather packets stored in our database for station/object TG5ALY-16. If no packets are shown the sender has not sent any weather packets the latest 10 day(s).
| Time | Temp. | Humidity | Pressure | Rain* | Wind** | Luminosity | Snow |
|---|---|---|---|---|---|---|---|
| 1777488698 | 25° C | 39% | 1012 hPa | 0 mm | - | - | - |
| 1777488097 | 24.44° C | 39% | 1013 hPa | 0 mm | - | - | - |
| 1777487497 | 23.89° C | 39% | 1013 hPa | 0 mm | - | - | - |
| 1777486895 | 23.33° C | 39% | 1014 hPa | 0 mm | - | - | - |
| 1777486294 | 21.67° C | 44% | 1014 hPa | 0 mm | - | - | - |
| 1777485694 | 21.67° C | 44% | 1014 hPa | 0 mm | - | - | - |
| 1777485093 | 21.67° C | 44% | 1014 hPa | 0 mm | - | - | - |
| 1777484492 | 21.67° C | 44% | 1014 hPa | 0 mm | - | - | - |
| 1777483891 | 21.67° C | 44% | 1014 hPa | 0 mm | - | - | - |
| 1777483291 | 21.67° C | 45% | 1015 hPa | 0 mm | - | - | - |
| 1777482690 | 21.11° C | 46% | 1015 hPa | 0 mm | - | - | - |
| 1777482089 | 20° C | 49% | 1015 hPa | 0 mm | - | - | - |
| 1777481489 | 20° C | 49% | 1015 hPa | 0 mm | - | - | - |
| 1777480888 | 20° C | 49% | 1015 hPa | 0 mm | - | - | - |
| 1777480287 | 20° C | 49% | 1016 hPa | 0 mm | - | - | - |
| 1777479687 | 20° C | 49% | 1016 hPa | 0 mm | - | - | - |
| 1777479086 | 19.44° C | 49% | 1016 hPa | 0 mm | - | - | - |
| 1777478485 | 16.11° C | 63% | 1016 hPa | 0 mm | - | - | - |
| 1777477884 | 16.11° C | 63% | 1016 hPa | 0 mm | - | - | - |
| 1777477284 | 16.11° C | 63% | 1016 hPa | 0 mm | - | - | - |
| 1777476683 | 16.67° C | 63% | 1016 hPa | 0 mm | - | - | - |
| 1777476082 | 16.11° C | 63% | 1016 hPa | 0 mm | - | - | - |
| 1777475482 | 16.11° C | 63% | 1016 hPa | 0 mm | - | - | - |
| 1777474881 | 12.22° C | 76% | 1016 hPa | 0 mm | - | - | - |
| 1777474280 | 12.22° C | 76% | 1016 hPa | 0 mm | - | - | - |
* Rain latest hour (hover to see other rain measurements)
** Current wind speed in m/s (hover to see current wind gust speed)